PWSweather.com
Personal Weather Stations
Station Observations

EtonMackayAU

Lat: -21.263, Lon: 148.975

Elevation: 106

Station Type: Davis Vantage Vue

http://aspgweather.com/cumulus/data.php

Latest ConditionsUpdated 11:56:01 AM GMT+10:10 Sunday, Feb 24, 2019
Currently Today's Max Today's Min Today's Average
Temperature 79.7°F26.5°C 80.2°F26.8°C 68.9°F20.5°C 72.6°F22.6°C
Dew Point 72.9°F22.7°C 73.6°F23.1°C 66.7°F19.3°C 69.1°F20.6°C
Winds 7.5 mph SE12.1 kmh SE 12.4 mph -20.0 kmh - - 5.1 mph 8.2 kmh
Wind Gusts 10.6 mph17.1 kmh 16.8 mph27.0 kmh - -
Humidity 80% 95% 76% 89%
Pressure 29.98 in1015.2 mb 30.03 in1016.9 mb 29.91 in1012.9 mb -
Precipitation - 0.09 in2.3 mm - -
Hour Temp Dew Point Humidity Winds Wind Gusts Pressure Precip Precip Rate Daily Precip Total
11:56 AM 79.7°F26.5°C 72.9°F22.7°C 80% 7.5 mph SE12.1 kmh SE 10.6 mph17.1 kmh 29.98 in1015.2 mb 0.00 in0.0 mm 0.00 in0.0 mm 0.09 in2.3 mm
11:51 AM 79.7°F26.5°C 72.9°F22.7°C 80% 9.3 mph SE15.0 kmh SE 14.3 mph23.0 kmh 29.98 in1015.2 mb 0.00 in0.0 mm 0.00 in0.0 mm 0.09 in2.3 mm
11:46 AM 79.9°F26.6°C 72.3°F22.4°C 78% 11.2 mph SE18.0 kmh SE 14.9 mph24.0 kmh 29.98 in1015.2 mb 0.00 in0.0 mm 0.00 in0.0 mm 0.09 in2.3 mm
11:41 AM 80.1°F26.7°C 71.8°F22.1°C 76% 11.2 mph SSE18.0 kmh SSE 14.9 mph24.0 kmh 29.98 in1015.2 mb 0.00 in0.0 mm 0.00 in0.0 mm 0.09 in2.3 mm
11:36 AM 80.2°F26.8°C 72.0°F22.2°C 76% 11.8 mph SSE19.0 kmh SSE 14.9 mph24.0 kmh 29.98 in1015.2 mb 0.00 in0.0 mm 0.00 in0.0 mm 0.09 in2.3 mm
11:31 AM 79.7°F26.5°C 72.5°F22.5°C 79% 12.4 mph SSE20.0 kmh SSE 14.9 mph24.0 kmh 29.98 in1015.2 mb 0.00 in0.0 mm 0.00 in0.0 mm 0.09 in2.3 mm
11:26 AM 79.2°F26.2°C 71.8°F22.1°C 78% 12.4 mph SE20.0 kmh SE 14.9 mph24.0 kmh 29.98 in1015.2 mb 0.00 in0.0 mm 0.00 in0.0 mm 0.09 in2.3 mm
11:21 AM 79.2°F26.2°C 72.1°F22.3°C 79% 8.7 mph SE14.0 kmh SE 14.9 mph24.0 kmh 29.99 in1015.6 mb 0.00 in0.0 mm 0.00 in0.0 mm 0.09 in2.3 mm
11:16 AM 79.2°F26.2°C 72.5°F22.5°C 80% 3.7 mph SE6.0 kmh SE 14.9 mph24.0 kmh 29.99 in1015.6 mb 0.00 in0.0 mm 0.00 in0.0 mm 0.09 in2.3 mm
11:11 AM 78.8°F26.0°C 73.6°F23.1°C 84% 1.9 mph NE3.1 kmh NE 5.0 mph8.0 kmh 29.99 in1015.6 mb 0.00 in0.0 mm 0.00 in0.0 mm 0.09 in2.3 mm
11:06 AM 78.8°F26.0°C 73.2°F22.9°C 83% 1.9 mph NE3.1 kmh NE 5.0 mph8.0 kmh 29.99 in1015.6 mb 0.00 in0.0 mm 0.00 in0.0 mm 0.09 in2.3 mm
11:01 AM 78.3°F25.7°C 72.7°F22.6°C 83% 2.5 mph NNE4.0 kmh NNE 3.7 mph6.0 kmh 29.99 in1015.6 mb 0.00 in0.0 mm 0.00 in0.0 mm 0.09 in2.3 mm
10:56 AM 77.4°F25.2°C 72.5°F22.5°C 85% 2.5 mph N4.0 kmh N 3.7 mph6.0 kmh 30.00 in1015.9 mb 0.00 in0.0 mm 0.00 in0.0 mm 0.09 in2.3 mm
10:51 AM 77.2°F25.1°C 73.0°F22.8°C 87% 1.9 mph N3.1 kmh N 3.7 mph6.0 kmh 30.00 in1015.9 mb 0.01 in0.3 mm 0.00 in0.0 mm 0.09 in2.3 mm
10:46 AM 76.3°F24.6°C 71.8°F22.1°C 86% 1.9 mph NNW3.1 kmh NNW 3.7 mph6.0 kmh 30.00 in1015.9 mb 0.01 in0.3 mm 0.00 in0.0 mm 0.09 in2.3 mm
10:41 AM 75.7°F24.3°C 71.6°F22.0°C 87% 1.2 mph NNW1.9 kmh NNW 2.5 mph4.0 kmh 30.00 in1015.9 mb 0.01 in0.3 mm 0.00 in0.0 mm 0.09 in2.3 mm
10:31 AM 73.9°F23.3°C 71.2°F21.8°C 91% 1.9 mph NW3.1 kmh NW 2.5 mph4.0 kmh 30.01 in1016.3 mb 0.02 in0.5 mm 0.00 in0.0 mm 0.09 in2.3 mm
10:26 AM 73.4°F23.0°C 70.2°F21.2°C 90% 2.5 mph NW4.0 kmh NW 3.7 mph6.0 kmh 30.01 in1016.3 mb 0.02 in0.5 mm 0.00 in0.0 mm 0.09 in2.3 mm
10:21 AM 72.9°F22.7°C 69.8°F21.0°C 90% 1.2 mph WNW1.9 kmh WNW 3.7 mph6.0 kmh 30.01 in1016.3 mb 0.02 in0.5 mm 0.00 in0.0 mm 0.09 in2.3 mm
10:16 AM 72.5°F22.5°C 69.8°F21.0°C 91% 1.9 mph SW3.1 kmh SW 3.7 mph6.0 kmh 30.01 in1016.3 mb 0.02 in0.5 mm 0.00 in0.0 mm 0.09 in2.3 mm
10:11 AM 71.6°F22.0°C 69.3°F20.7°C 92% 2.5 mph S4.0 kmh S 3.7 mph6.0 kmh 30.01 in1016.3 mb 0.02 in0.5 mm 0.00 in0.0 mm 0.09 in2.3 mm
10:06 AM 71.6°F22.0°C 69.8°F21.0°C 94% 3.1 mph S5.0 kmh S 5.0 mph8.0 kmh 30.02 in1016.6 mb 0.02 in0.5 mm 0.00 in0.0 mm 0.09 in2.3 mm
09:56 AM 70.9°F21.6°C 68.7°F20.4°C 93% 7.5 mph SSE12.1 kmh SSE 11.2 mph18.0 kmh 30.02 in1016.6 mb 0.02 in0.5 mm 0.09 in2.3 mm 0.09 in2.3 mm
09:51 AM 70.7°F21.5°C 68.2°F20.1°C 92% 9.9 mph SSE15.9 kmh SSE 14.9 mph24.0 kmh 30.02 in1016.6 mb 0.01 in0.3 mm 0.00 in0.0 mm 0.08 in2.0 mm
09:46 AM 70.9°F21.6°C 68.4°F20.2°C 92% 10.6 mph S17.1 kmh S 14.9 mph24.0 kmh 30.03 in1016.9 mb 0.01 in0.3 mm 0.00 in0.0 mm 0.08 in2.0 mm
09:41 AM 71.2°F21.8°C 68.5°F20.3°C 91% 9.9 mph SSE15.9 kmh SSE 14.9 mph24.0 kmh 30.03 in1016.9 mb 0.01 in0.3 mm 0.09 in2.3 mm 0.08 in2.0 mm
09:36 AM 71.4°F21.9°C 68.0°F20.0°C 89% 10.6 mph S17.1 kmh S 14.9 mph24.0 kmh 30.02 in1016.6 mb 0.00 in0.0 mm 0.00 in0.0 mm 0.07 in1.8 mm
09:31 AM 72.0°F22.2°C 68.2°F20.1°C 88% 11.8 mph S19.0 kmh S 14.9 mph24.0 kmh 30.02 in1016.6 mb 0.00 in0.0 mm 0.00 in0.0 mm 0.07 in1.8 mm
09:26 AM 72.9°F22.7°C 68.5°F20.3°C 86% 11.2 mph S18.0 kmh S 14.9 mph24.0 kmh 30.02 in1016.6 mb 0.00 in0.0 mm 0.00 in0.0 mm 0.07 in1.8 mm
09:21 AM 74.7°F23.7°C 69.1°F20.6°C 83% 11.2 mph SSE18.0 kmh SSE 14.3 mph23.0 kmh 30.02 in1016.6 mb 0.00 in0.0 mm 0.00 in0.0 mm 0.07 in1.8 mm
09:16 AM 75.7°F24.3°C 70.2°F21.2°C 83% 11.2 mph SSE18.0 kmh SSE 14.3 mph23.0 kmh 30.02 in1016.6 mb 0.00 in0.0 mm 0.00 in0.0 mm 0.07 in1.8 mm
09:11 AM 76.1°F24.5°C 69.4°F20.8°C 80% 9.3 mph SSE15.0 kmh SSE 14.3 mph23.0 kmh 30.01 in1016.3 mb 0.03 in0.8 mm 0.00 in0.0 mm 0.07 in1.8 mm
09:06 AM 76.5°F24.7°C 71.2°F21.8°C 84% 6.2 mph SSE10.0 kmh SSE 10.6 mph17.1 kmh 30.01 in1016.3 mb 0.04 in1.0 mm 0.00 in0.0 mm 0.07 in1.8 mm
08:56 AM 75.7°F24.3°C 71.8°F22.1°C 88% 3.1 mph SE5.0 kmh SE 5.0 mph8.0 kmh 30.01 in1016.3 mb 0.04 in1.0 mm 0.00 in0.0 mm 0.07 in1.8 mm
08:51 AM 75.7°F24.3°C 71.6°F22.0°C 87% 2.5 mph E4.0 kmh E 3.7 mph6.0 kmh 30.01 in1016.3 mb 0.04 in1.0 mm 0.00 in0.0 mm 0.07 in1.8 mm
08:46 AM 75.4°F24.1°C 72.0°F22.2°C 89% 2.5 mph E4.0 kmh E 3.7 mph6.0 kmh 30.01 in1016.3 mb 0.04 in1.0 mm 0.00 in0.0 mm 0.07 in1.8 mm
08:41 AM 74.5°F23.6°C 70.9°F21.6°C 89% 3.1 mph SE5.0 kmh SE 3.7 mph6.0 kmh 30.01 in1016.3 mb 0.04 in1.0 mm 0.00 in0.0 mm 0.07 in1.8 mm
08:36 AM 74.1°F23.4°C 70.7°F21.5°C 89% 3.1 mph SE5.0 kmh SE 3.7 mph6.0 kmh 30.01 in1016.3 mb 0.04 in1.0 mm 0.00 in0.0 mm 0.07 in1.8 mm
08:31 AM 73.4°F23.0°C 70.2°F21.2°C 90% 3.1 mph SSE5.0 kmh SSE 6.2 mph10.0 kmh 30.00 in1015.9 mb 0.04 in1.0 mm 0.00 in0.0 mm 0.07 in1.8 mm
08:26 AM 72.7°F22.6°C 70.0°F21.1°C 91% 4.3 mph S6.9 kmh S 8.1 mph13.0 kmh 30.00 in1015.9 mb 0.04 in1.0 mm 0.00 in0.0 mm 0.07 in1.8 mm
08:21 AM 72.1°F22.3°C 69.1°F20.6°C 90% 5.6 mph S9.0 kmh S 8.7 mph14.0 kmh 30.00 in1015.9 mb 0.04 in1.0 mm 0.00 in0.0 mm 0.07 in1.8 mm
08:16 AM 72.0°F22.2°C 68.5°F20.3°C 89% 5.6 mph S9.0 kmh S 8.7 mph14.0 kmh 30.00 in1015.9 mb 0.04 in1.0 mm 0.38 in9.7 mm 0.07 in1.8 mm
08:11 AM 72.0°F22.2°C 68.7°F20.4°C 90% 6.8 mph S10.9 kmh S 12.4 mph20.0 kmh 30.00 in1015.9 mb 0.01 in0.3 mm 0.09 in2.3 mm 0.04 in1.0 mm
08:06 AM 72.0°F22.2°C 68.2°F20.1°C 88% 6.8 mph S10.9 kmh S 12.4 mph20.0 kmh 29.99 in1015.6 mb 0.00 in0.0 mm 0.00 in0.0 mm 0.03 in0.8 mm
08:01 AM 71.2°F21.8°C 68.5°F20.3°C 91% 6.8 mph S10.9 kmh S 8.7 mph14.0 kmh 29.99 in1015.6 mb 0.00 in0.0 mm 0.00 in0.0 mm 0.03 in0.8 mm
07:56 AM 70.9°F21.6°C 68.0°F20.0°C 91% 6.8 mph S10.9 kmh S 8.7 mph14.0 kmh 29.99 in1015.6 mb 0.00 in0.0 mm 0.00 in0.0 mm 0.03 in0.8 mm
07:51 AM 70.7°F21.5°C 68.2°F20.1°C 92% 6.8 mph SSW10.9 kmh SSW 8.7 mph14.0 kmh 29.98 in1015.2 mb 0.00 in0.0 mm 0.00 in0.0 mm 0.03 in0.8 mm
07:46 AM 70.9°F21.6°C 68.4°F20.2°C 92% 5.6 mph S9.0 kmh S 8.1 mph13.0 kmh 29.98 in1015.2 mb 0.00 in0.0 mm 0.00 in0.0 mm 0.03 in0.8 mm
07:41 AM 71.1°F21.7°C 68.5°F20.3°C 92% 5.0 mph S8.0 kmh S 8.1 mph13.0 kmh 29.98 in1015.2 mb 0.00 in0.0 mm 0.00 in0.0 mm 0.03 in0.8 mm
07:36 AM 70.9°F21.6°C 68.4°F20.2°C 92% 5.6 mph S9.0 kmh S 8.7 mph14.0 kmh 29.98 in1015.2 mb 0.00 in0.0 mm 0.00 in0.0 mm 0.03 in0.8 mm
07:31 AM 71.1°F21.7°C 68.5°F20.3°C 92% 7.5 mph SSE12.1 kmh SSE 14.9 mph24.0 kmh 29.98 in1015.2 mb 0.00 in0.0 mm 0.00 in0.0 mm 0.03 in0.8 mm
07:26 AM 71.2°F21.8°C 68.5°F20.3°C 91% 7.5 mph SSE12.1 kmh SSE 14.9 mph24.0 kmh 29.99 in1015.6 mb 0.00 in0.0 mm 0.00 in0.0 mm 0.03 in0.8 mm
07:21 AM 71.1°F21.7°C 68.5°F20.3°C 92% 3.7 mph SSE6.0 kmh SSE 6.2 mph10.0 kmh 29.99 in1015.6 mb 0.00 in0.0 mm 0.00 in0.0 mm 0.03 in0.8 mm
07:16 AM 70.9°F21.6°C 69.3°F20.7°C 95% 2.5 mph S4.0 kmh S 3.7 mph6.0 kmh 29.98 in1015.2 mb 0.00 in0.0 mm 0.00 in0.0 mm 0.03 in0.8 mm
07:11 AM 71.1°F21.7°C 69.3°F20.7°C 94% 1.2 mph NW1.9 kmh NW 2.5 mph4.0 kmh 29.97 in1014.9 mb 0.00 in0.0 mm 0.00 in0.0 mm 0.03 in0.8 mm
07:06 AM 71.1°F21.7°C 69.3°F20.7°C 94% 0.6 mph WNW1.0 kmh WNW 1.9 mph3.1 kmh 29.97 in1014.9 mb 0.00 in0.0 mm 0.00 in0.0 mm 0.03 in0.8 mm
07:01 AM 71.1°F21.7°C 69.3°F20.7°C 94% Calm Calm 1.9 mph3.1 kmh 29.97 in1014.9 mb 0.00 in0.0 mm 0.00 in0.0 mm 0.03 in0.8 mm
06:56 AM 71.1°F21.7°C 69.3°F20.7°C 94% Calm Calm 2.5 mph4.0 kmh 29.97 in1014.9 mb 0.00 in0.0 mm 0.00 in0.0 mm 0.03 in0.8 mm
06:51 AM 70.9°F21.6°C 69.1°F20.6°C 94% 1.9 mph WNW3.1 kmh WNW 3.7 mph6.0 kmh 29.97 in1014.9 mb 0.00 in0.0 mm 0.00 in0.0 mm 0.03 in0.8 mm
06:46 AM 70.3°F21.3°C 68.0°F20.0°C 92% 3.1 mph WNW5.0 kmh WNW 3.7 mph6.0 kmh 29.97 in1014.9 mb 0.00 in0.0 mm 0.00 in0.0 mm 0.03 in0.8 mm
06:41 AM 70.3°F21.3°C 68.0°F20.0°C 92% 3.1 mph WNW5.0 kmh WNW 5.0 mph8.0 kmh 29.96 in1014.6 mb 0.00 in0.0 mm 0.00 in0.0 mm 0.03 in0.8 mm
06:36 AM 70.2°F21.2°C 68.0°F20.0°C 93% 3.7 mph WNW6.0 kmh WNW 6.2 mph10.0 kmh 29.96 in1014.6 mb 0.00 in0.0 mm 0.00 in0.0 mm 0.03 in0.8 mm
06:31 AM 69.8°F21.0°C 67.6°F19.8°C 93% 4.3 mph WNW6.9 kmh WNW 6.2 mph10.0 kmh 29.96 in1014.6 mb 0.00 in0.0 mm 0.00 in0.0 mm 0.03 in0.8 mm
06:26 AM 69.6°F20.9°C 67.8°F19.9°C 94% 3.7 mph WNW6.0 kmh WNW 5.0 mph8.0 kmh 29.96 in1014.6 mb 0.00 in0.0 mm 0.00 in0.0 mm 0.03 in0.8 mm
06:16 AM 69.4°F20.8°C 67.6°F19.8°C 94% 4.3 mph WNW6.9 kmh WNW 5.0 mph8.0 kmh 29.96 in1014.6 mb 0.00 in0.0 mm 0.00 in0.0 mm 0.03 in0.8 mm
06:11 AM 69.6°F20.9°C 67.8°F19.9°C 94% 2.5 mph W4.0 kmh W 3.7 mph6.0 kmh 29.96 in1014.6 mb 0.00 in0.0 mm 0.00 in0.0 mm 0.03 in0.8 mm
06:06 AM 69.6°F20.9°C 67.5°F19.7°C 93% 1.9 mph SW3.1 kmh SW 2.5 mph4.0 kmh 29.96 in1014.6 mb 0.00 in0.0 mm 0.00 in0.0 mm 0.03 in0.8 mm
06:01 AM 69.4°F20.8°C 67.6°F19.8°C 94% 1.9 mph SSW3.1 kmh SSW 2.5 mph4.0 kmh 29.95 in1014.2 mb 0.01 in0.3 mm 0.00 in0.0 mm 0.03 in0.8 mm
05:56 AM 68.9°F20.5°C 67.1°F19.5°C 94% 1.2 mph SSW1.9 kmh SSW 2.5 mph4.0 kmh 29.95 in1014.2 mb 0.02 in0.5 mm 0.00 in0.0 mm 0.03 in0.8 mm
05:46 AM 69.1°F20.6°C 67.3°F19.6°C 94% Calm Calm 1.9 mph3.1 kmh 29.95 in1014.2 mb 0.03 in0.8 mm 0.00 in0.0 mm 0.03 in0.8 mm
05:36 AM 69.6°F20.9°C 67.5°F19.7°C 93% 3.1 mph S5.0 kmh S 8.1 mph13.0 kmh 29.95 in1014.2 mb 0.03 in0.8 mm 0.00 in0.0 mm 0.03 in0.8 mm
05:31 AM 69.6°F20.9°C 67.1°F19.5°C 92% 5.6 mph S9.0 kmh S 8.1 mph13.0 kmh 29.95 in1014.2 mb 0.03 in0.8 mm 0.00 in0.0 mm 0.03 in0.8 mm
05:26 AM 69.4°F20.8°C 67.3°F19.6°C 93% 7.5 mph S12.1 kmh S 12.4 mph20.0 kmh 29.95 in1014.2 mb 0.03 in0.8 mm 0.00 in0.0 mm 0.03 in0.8 mm
05:21 AM 69.4°F20.8°C 67.3°F19.6°C 93% 7.5 mph SSW12.1 kmh SSW 12.4 mph20.0 kmh 29.94 in1013.9 mb 0.03 in0.8 mm 0.00 in0.0 mm 0.03 in0.8 mm
05:16 AM 69.1°F20.6°C 67.1°F19.5°C 93% 5.0 mph SSW8.0 kmh SSW 10.6 mph17.1 kmh 29.94 in1013.9 mb 0.03 in0.8 mm 0.00 in0.0 mm 0.03 in0.8 mm
05:11 AM 69.4°F20.8°C 66.9°F19.4°C 92% 5.0 mph SSE8.0 kmh SSE 6.2 mph10.0 kmh 29.93 in1013.5 mb 0.03 in0.8 mm 0.00 in0.0 mm 0.03 in0.8 mm
05:06 AM 69.6°F20.9°C 66.9°F19.4°C 91% 6.8 mph SE10.9 kmh SE 10.6 mph17.1 kmh 29.93 in1013.5 mb 0.03 in0.8 mm 0.02 in0.5 mm 0.03 in0.8 mm
04:56 AM 69.8°F21.0°C 67.1°F19.5°C 91% 9.3 mph SSE15.0 kmh SSE 14.3 mph23.0 kmh 29.93 in1013.5 mb 0.02 in0.5 mm 0.19 in4.8 mm 0.02 in0.5 mm
04:51 AM 70.2°F21.2°C 67.5°F19.7°C 91% 8.1 mph SSE13.0 kmh SSE 12.4 mph20.0 kmh 29.93 in1013.5 mb 0.00 in0.0 mm 0.00 in0.0 mm 0.00 in0.0 mm
04:46 AM 70.3°F21.3°C 67.3°F19.6°C 90% 7.5 mph S12.1 kmh S 10.6 mph17.1 kmh 29.93 in1013.5 mb 0.00 in0.0 mm 0.00 in0.0 mm 0.00 in0.0 mm
04:41 AM 70.7°F21.5°C 67.3°F19.6°C 89% 9.3 mph S15.0 kmh S 16.8 mph27.0 kmh 29.93 in1013.5 mb 0.00 in0.0 mm 0.00 in0.0 mm 0.00 in0.0 mm
04:36 AM 70.9°F21.6°C 67.5°F19.7°C 89% 8.7 mph SSE14.0 kmh SSE 16.8 mph27.0 kmh 29.93 in1013.5 mb 0.00 in0.0 mm 0.00 in0.0 mm 0.00 in0.0 mm
04:31 AM 70.3°F21.3°C 67.3°F19.6°C 90% 4.3 mph S6.9 kmh S 16.8 mph27.0 kmh 29.93 in1013.5 mb 0.00 in0.0 mm 0.00 in0.0 mm 0.00 in0.0 mm
04:26 AM 70.2°F21.2°C 67.5°F19.7°C 91% 1.2 mph WSW1.9 kmh WSW 2.5 mph4.0 kmh 29.93 in1013.5 mb 0.00 in0.0 mm 0.00 in0.0 mm 0.00 in0.0 mm
04:21 AM 70.7°F21.5°C 67.6°F19.8°C 90% 1.9 mph S3.1 kmh S 5.0 mph8.0 kmh 29.93 in1013.5 mb 0.00 in0.0 mm 0.00 in0.0 mm 0.00 in0.0 mm
04:16 AM 71.1°F21.7°C 67.6°F19.8°C 89% 4.3 mph S6.9 kmh S 6.2 mph10.0 kmh 29.92 in1013.2 mb 0.00 in0.0 mm 0.00 in0.0 mm 0.00 in0.0 mm
04:11 AM 70.7°F21.5°C 67.3°F19.6°C 89% 6.2 mph S10.0 kmh S 8.1 mph13.0 kmh 29.92 in1013.2 mb 0.00 in0.0 mm 0.00 in0.0 mm 0.00 in0.0 mm
04:06 AM 70.7°F21.5°C 67.3°F19.6°C 89% 8.1 mph S13.0 kmh S 10.6 mph17.1 kmh 29.92 in1013.2 mb 0.00 in0.0 mm 0.00 in0.0 mm 0.00 in0.0 mm
04:01 AM 70.2°F21.2°C 66.7°F19.3°C 89% 9.3 mph S15.0 kmh S 11.2 mph18.0 kmh 29.92 in1013.2 mb 0.00 in0.0 mm 0.00 in0.0 mm 0.00 in0.0 mm
03:51 AM 70.9°F21.6°C 67.8°F19.9°C 90% 9.3 mph S15.0 kmh S 14.3 mph23.0 kmh 29.92 in1013.2 mb 0.00 in0.0 mm 0.00 in0.0 mm 0.00 in0.0 mm
03:46 AM 71.6°F22.0°C 68.0°F20.0°C 88% 6.8 mph S10.9 kmh S 11.2 mph18.0 kmh 29.92 in1013.2 mb 0.00 in0.0 mm 0.00 in0.0 mm 0.00 in0.0 mm
03:41 AM 71.6°F22.0°C 68.0°F20.0°C 88% 2.5 mph S4.0 kmh S 8.7 mph14.0 kmh 29.92 in1013.2 mb 0.00 in0.0 mm 0.00 in0.0 mm 0.00 in0.0 mm
03:36 AM 71.6°F22.0°C 68.2°F20.1°C 89% 1.2 mph WNW1.9 kmh WNW 2.5 mph4.0 kmh 29.92 in1013.2 mb 0.00 in0.0 mm 0.00 in0.0 mm 0.00 in0.0 mm
03:31 AM 71.6°F22.0°C 68.2°F20.1°C 89% 1.9 mph WNW3.1 kmh WNW 2.5 mph4.0 kmh 29.92 in1013.2 mb 0.00 in0.0 mm 0.00 in0.0 mm 0.00 in0.0 mm
03:26 AM 71.4°F21.9°C 68.4°F20.2°C 90% 1.9 mph WNW3.1 kmh WNW 2.5 mph4.0 kmh 29.92 in1013.2 mb 0.00 in0.0 mm 0.00 in0.0 mm 0.00 in0.0 mm
03:21 AM 71.2°F21.8°C 68.2°F20.1°C 90% 3.1 mph NW5.0 kmh NW 3.7 mph6.0 kmh 29.92 in1013.2 mb 0.00 in0.0 mm 0.00 in0.0 mm 0.00 in0.0 mm
03:16 AM 71.1°F21.7°C 68.4°F20.2°C 91% 2.5 mph NW4.0 kmh NW 3.7 mph6.0 kmh 29.92 in1013.2 mb 0.00 in0.0 mm 0.00 in0.0 mm 0.00 in0.0 mm
03:11 AM 71.1°F21.7°C 68.5°F20.3°C 92% 1.9 mph NNW3.1 kmh NNW 2.5 mph4.0 kmh 29.92 in1013.2 mb 0.00 in0.0 mm 0.00 in0.0 mm 0.00 in0.0 mm
03:06 AM 71.6°F22.0°C 68.5°F20.3°C 90% 1.2 mph NW1.9 kmh NW 2.5 mph4.0 kmh 29.92 in1013.2 mb 0.00 in0.0 mm 0.00 in0.0 mm 0.00 in0.0 mm
03:01 AM 72.5°F22.5°C 69.1°F20.6°C 89% 2.5 mph S4.0 kmh S 5.0 mph8.0 kmh 29.92 in1013.2 mb 0.00 in0.0 mm 0.00 in0.0 mm 0.00 in0.0 mm
02:56 AM 72.7°F22.6°C 68.7°F20.4°C 87% 5.0 mph S8.0 kmh S 8.7 mph14.0 kmh 29.92 in1013.2 mb 0.00 in0.0 mm 0.00 in0.0 mm 0.00 in0.0 mm
02:51 AM 72.5°F22.5°C 68.4°F20.2°C 87% 6.2 mph S10.0 kmh S 8.7 mph14.0 kmh 29.92 in1013.2 mb 0.00 in0.0 mm 0.00 in0.0 mm 0.00 in0.0 mm
02:46 AM 72.3°F22.4°C 68.5°F20.3°C 88% 6.8 mph S10.9 kmh S 8.7 mph14.0 kmh 29.92 in1013.2 mb 0.00 in0.0 mm 0.00 in0.0 mm 0.00 in0.0 mm
02:41 AM 72.3°F22.4°C 68.5°F20.3°C 88% 6.8 mph S10.9 kmh S 8.7 mph14.0 kmh 29.91 in1012.9 mb 0.00 in0.0 mm 0.00 in0.0 mm 0.00 in0.0 mm
02:36 AM 72.1°F22.3°C 68.7°F20.4°C 89% 5.6 mph S9.0 kmh S 8.7 mph14.0 kmh 29.91 in1012.9 mb 0.00 in0.0 mm 0.00 in0.0 mm 0.00 in0.0 mm
02:26 AM 72.0°F22.2°C 68.5°F20.3°C 89% 2.5 mph S4.0 kmh S 5.0 mph8.0 kmh 29.92 in1013.2 mb 0.00 in0.0 mm 0.00 in0.0 mm 0.00 in0.0 mm
02:21 AM 72.1°F22.3°C 68.7°F20.4°C 89% 4.3 mph S6.9 kmh S 8.1 mph13.0 kmh 29.91 in1012.9 mb 0.00 in0.0 mm 0.00 in0.0 mm 0.00 in0.0 mm
02:11 AM 72.1°F22.3°C 68.7°F20.4°C 89% 5.6 mph S9.0 kmh S 8.7 mph14.0 kmh 29.91 in1012.9 mb 0.00 in0.0 mm 0.00 in0.0 mm 0.00 in0.0 mm
02:06 AM 72.0°F22.2°C 68.7°F20.4°C 90% 5.0 mph S8.0 kmh S 6.2 mph10.0 kmh 29.91 in1012.9 mb 0.00 in0.0 mm 0.00 in0.0 mm 0.00 in0.0 mm
02:01 AM 72.0°F22.2°C 68.7°F20.4°C 90% 6.2 mph SSE10.0 kmh SSE 8.1 mph13.0 kmh 29.91 in1012.9 mb 0.00 in0.0 mm 0.00 in0.0 mm 0.00 in0.0 mm
01:56 AM 72.5°F22.5°C 68.7°F20.4°C 88% 6.2 mph SSE10.0 kmh SSE 8.1 mph13.0 kmh 29.91 in1012.9 mb 0.00 in0.0 mm 0.00 in0.0 mm 0.00 in0.0 mm
01:46 AM 72.5°F22.5°C 68.7°F20.4°C 88% 3.1 mph S5.0 kmh S 6.2 mph10.0 kmh 29.91 in1012.9 mb 0.00 in0.0 mm 0.00 in0.0 mm 0.00 in0.0 mm
01:41 AM 72.5°F22.5°C 68.7°F20.4°C 88% 2.5 mph S4.0 kmh S 3.7 mph6.0 kmh 29.91 in1012.9 mb 0.00 in0.0 mm 0.00 in0.0 mm 0.00 in0.0 mm
01:36 AM 72.3°F22.4°C 68.5°F20.3°C 88% 2.5 mph S4.0 kmh S 3.7 mph6.0 kmh 29.91 in1012.9 mb 0.00 in0.0 mm 0.00 in0.0 mm 0.00 in0.0 mm
01:31 AM 72.3°F22.4°C 68.5°F20.3°C 88% 2.5 mph S4.0 kmh S 3.7 mph6.0 kmh 29.92 in1013.2 mb 0.00 in0.0 mm 0.00 in0.0 mm 0.00 in0.0 mm
01:21 AM 72.5°F22.5°C 68.7°F20.4°C 88% 4.3 mph S6.9 kmh S 5.0 mph8.0 kmh 29.92 in1013.2 mb 0.00 in0.0 mm 0.00 in0.0 mm 0.00 in0.0 mm
01:16 AM 72.3°F22.4°C 68.5°F20.3°C 88% 3.7 mph S6.0 kmh S 5.0 mph8.0 kmh 29.92 in1013.2 mb 0.00 in0.0 mm 0.00 in0.0 mm 0.00 in0.0 mm
01:11 AM 72.3°F22.4°C 68.5°F20.3°C 88% 1.9 mph S3.1 kmh S 2.5 mph4.0 kmh 29.92 in1013.2 mb 0.00 in0.0 mm 0.00 in0.0 mm 0.00 in0.0 mm
01:06 AM 72.5°F22.5°C 68.7°F20.4°C 88% 3.7 mph S6.0 kmh S 6.2 mph10.0 kmh 29.92 in1013.2 mb 0.00 in0.0 mm 0.00 in0.0 mm 0.00 in0.0 mm
12:51 AM 72.9°F22.7°C 69.3°F20.7°C 89% 5.6 mph S9.0 kmh S 8.7 mph14.0 kmh 29.92 in1013.2 mb 0.00 in0.0 mm 0.00 in0.0 mm 0.00 in0.0 mm
12:41 AM 73.4°F23.0°C 69.3°F20.7°C 87% 6.2 mph S10.0 kmh S 8.7 mph14.0 kmh 29.92 in1013.2 mb 0.00 in0.0 mm 0.00 in0.0 mm 0.00 in0.0 mm
12:36 AM 73.6°F23.1°C 69.4°F20.8°C 87% 6.2 mph S10.0 kmh S 8.7 mph14.0 kmh 29.93 in1013.5 mb 0.00 in0.0 mm 0.00 in0.0 mm 0.00 in0.0 mm
12:31 AM 73.6°F23.1°C 69.4°F20.8°C 87% 6.2 mph S10.0 kmh S 8.7 mph14.0 kmh 29.93 in1013.5 mb 0.00 in0.0 mm 0.00 in0.0 mm 0.00 in0.0 mm
12:26 AM 73.6°F23.1°C 69.1°F20.6°C 86% 6.2 mph S10.0 kmh S 8.7 mph14.0 kmh 29.93 in1013.5 mb 0.00 in0.0 mm 0.00 in0.0 mm 0.00 in0.0 mm
12:21 AM 73.8°F23.2°C 69.3°F20.7°C 86% 5.6 mph S9.0 kmh S 8.7 mph14.0 kmh 29.93 in1013.5 mb 0.00 in0.0 mm 0.00 in0.0 mm 0.00 in0.0 mm
12:16 AM 73.6°F23.1°C 69.4°F20.8°C 87% 5.6 mph S9.0 kmh S 8.7 mph14.0 kmh 29.93 in1013.5 mb 0.00 in0.0 mm 0.00 in0.0 mm 0.00 in0.0 mm
12:11 AM 73.6°F23.1°C 69.4°F20.8°C 87% 5.0 mph S8.0 kmh S 8.1 mph13.0 kmh 29.93 in1013.5 mb 0.00 in0.0 mm 0.00 in0.0 mm 0.00 in0.0 mm
12:06 AM 73.4°F23.0°C 69.3°F20.7°C 87% 3.7 mph S6.0 kmh S 8.1 mph13.0 kmh 29.93 in1013.5 mb 0.00 in0.0 mm 0.00 in0.0 mm 0.00 in0.0 mm
12:01 AM 73.4°F23.0°C 69.6°F20.9°C 88% 2.5 mph S4.0 kmh S 8.1 mph13.0 kmh 29.93 in1013.5 mb 0.00 in0.0 mm 0.00 in0.0 mm 0.00 in0.0 mm